Anco, Kentucky
Current Conditions -  °F | °C
As of 2:53 AM on Tuesday 21 Oct 2014 (Local Time) from KJKL Reporting Station
Broken Clouds Broken Clouds  
Wind Chill: 51°   Ceiling: 3800
Heat Index: 51°   Visibility: 10mi
Dew Point: 48°   Wind: 3mph
Humidity: 89%   Direction: NA
Pressure: 29.95"   Gusts: NA
Location:  37.2376°N, 83.0326°W
Report Text: KJKL 210653Z AUTO VRB03KT 10SM SCT029 BKN038 BKN085 11/09 A2995 RMK AO2 RAB0557E15 SLP139 P0001 T01060089
Loading
Personal Weather Stations






























Interactive Weather Map New forecast layout! Learn more

10-Day Weather Forecast

Advertisements
Track Severe Weather on mobile